Etobicoke, Canada
Current Conditions -  °F | °C
As of 5:00 AM on Friday 31 Oct 2014 (Local Time) from CYYZ Reporting Station
Overcast Overcast  
Wind Chill: 43°   Ceiling: 4500
Heat Index: 43°   Visibility: 12mi
Dew Point: 37°   Wind: 3mph
Humidity: 81%   Direction: 80°E
Pressure: 29.96"   Gusts: NA
Location:  43.64°N, 79.57°W
Report Text: CYYZ 310900Z 08003KT 12SM SCT035 OVC045 06/03 A2996 RMK SC3SC5 SLP150
Loading
Personal Weather Stations






























Interactive Weather Map
Tropical Storm Tracking
New forecast layout! Learn more

10-Day Weather Forecast

Advertisements
Track Severe Weather on mobile